createdAt,value
2023-03-29T00:00:42.985Z,4.13
2023-03-29T00:03:10.797Z,3.93
2023-03-29T00:05:41.132Z,3.20
2023-03-29T00:08:09.157Z,3.90
2023-03-29T00:10:36.933Z,3.40
2023-03-29T00:13:04.731Z,3.83
2023-03-29T00:15:33.804Z,4.17
2023-03-29T00:18:01.577Z,3.60
2023-03-29T00:20:29.807Z,3.90
2023-03-29T00:22:57.662Z,3.30
2023-03-29T00:25:25.564Z,3.87
2023-03-29T00:27:53.243Z,3.97
2023-03-29T00:30:21.202Z,4.00
2023-03-29T00:32:51.390Z,4.33
2023-03-29T00:35:19.413Z,4.37
2023-03-29T00:37:51.057Z,4.27
2023-03-29T00:40:18.890Z,4.30
2023-03-29T00:42:46.633Z,5.47
2023-03-29T00:45:25.207Z,5.60
2023-03-29T00:47:57.084Z,5.87
2023-03-29T00:50:29.568Z,5.73
2023-03-29T00:53:02.504Z,6.77
2023-03-29T00:55:33.608Z,6.53
2023-03-29T00:58:02.710Z,6.80
2023-03-29T01:00:32.834Z,6.83
2023-03-29T01:03:07.130Z,7.33
2023-03-29T01:05:37.901Z,7.83
2023-03-29T01:08:07.927Z,7.13
2023-03-29T01:10:40.133Z,8.60
2023-03-29T01:13:10.484Z,8.83
2023-03-29T01:15:39.096Z,9.23
2023-03-29T01:18:08.906Z,8.67
2023-03-29T01:20:48.974Z,8.73
2023-03-29T01:23:33.563Z,8.90
2023-03-29T01:26:05.996Z,9.40
2023-03-29T01:28:37.327Z,9.87
2023-03-29T01:31:08.515Z,10.10
2023-03-29T01:33:40.082Z,10.07
2023-03-29T01:36:12.317Z,10.10
2023-03-29T01:38:43.186Z,9.13
2023-03-29T01:41:12.021Z,9.83
2023-03-29T01:43:45.984Z,10.33
2023-03-29T01:46:20.722Z,8.90
2023-03-29T01:48:53.153Z,8.73
2023-03-29T01:51:26.016Z,8.97
2023-03-29T01:53:57.476Z,9.03
2023-03-29T01:56:28.236Z,9.27
2023-03-29T01:59:00.865Z,9.03
2023-03-29T02:01:31.382Z,9.33
2023-03-29T02:04:01.801Z,9.57
2023-03-29T02:06:31.660Z,10.13
2023-03-29T02:08:59.845Z,9.30
2023-03-29T02:11:29.368Z,9.73
2023-03-29T02:13:58.615Z,9.07
2023-03-29T02:16:26.323Z,8.60
2023-03-29T02:18:56.338Z,9.80
2023-03-29T02:21:27.563Z,9.07
2023-03-29T02:23:56.842Z,9.37
2023-03-29T02:26:24.653Z,10.00
2023-03-29T02:28:52.799Z,11.70
2023-03-29T02:31:24.904Z,9.60
2023-03-29T02:33:55.946Z,9.50
2023-03-29T02:36:27.397Z,9.23
2023-03-29T02:38:55.930Z,9.50
2023-03-29T02:41:24.720Z,8.47
2023-03-29T02:43:52.542Z,9.07
2023-03-29T02:46:21.844Z,9.83
2023-03-29T02:48:51.309Z,9.70
2023-03-29T02:51:21.647Z,9.50
2023-03-29T02:53:53.199Z,10.17
2023-03-29T02:56:21.194Z,10.40
2023-03-29T02:58:48.861Z,9.90
2023-03-29T03:01:17.548Z,9.43
2023-03-29T03:03:47.982Z,10.87
2023-03-29T03:06:15.731Z,10.20
2023-03-29T03:08:44.156Z,9.40
2023-03-29T03:11:11.811Z,10.67
2023-03-29T03:13:39.476Z,11.23
2023-03-29T03:16:08.357Z,10.33
2023-03-29T03:18:36.062Z,9.77
2023-03-29T03:21:05.572Z,10.20
2023-03-29T03:23:33.267Z,10.20
2023-03-29T03:26:01.008Z,10.10
2023-03-29T03:28:28.772Z,10.60
2023-03-29T03:30:56.453Z,10.43
2023-03-29T03:33:24.188Z,10.13
2023-03-29T03:35:51.913Z,10.37
2023-03-29T03:38:20.994Z,10.17
2023-03-29T03:40:54.552Z,10.50
2023-03-29T03:43:22.428Z,9.53
2023-03-29T03:45:50.971Z,9.90
2023-03-29T03:48:18.885Z,10.17
2023-03-29T03:50:49.883Z,9.17
2023-03-29T03:53:18.137Z,9.83
2023-03-29T03:55:50.228Z,9.10
2023-03-29T03:58:19.032Z,9.73
2023-03-29T04:00:50.191Z,9.67
2023-03-29T04:03:18.846Z,10.03
2023-03-29T04:05:47.534Z,9.60
2023-03-29T04:08:15.874Z,10.47
2023-03-29T04:10:43.784Z,10.07
2023-03-29T04:13:12.977Z,10.53
2023-03-29T04:15:41.282Z,11.03
2023-03-29T04:18:09.144Z,9.70
2023-03-29T04:20:37.208Z,10.53
2023-03-29T04:23:05.032Z,10.40
2023-03-29T04:25:33.314Z,11.93
2023-03-29T04:28:01.773Z,11.67
2023-03-29T04:30:30.806Z,12.93
2023-03-29T04:32:58.593Z,12.53
2023-03-29T04:35:26.285Z,13.17
2023-03-29T04:37:54.574Z,12.73
2023-03-29T04:40:22.554Z,14.07
2023-03-29T04:42:51.707Z,13.57
2023-03-29T04:45:19.517Z,14.37
2023-03-29T04:47:49.009Z,14.93
2023-03-29T04:50:16.997Z,15.43
2023-03-29T04:52:45.569Z,14.73
2023-03-29T04:55:13.377Z,14.73
2023-03-29T04:57:41.242Z,14.97
2023-03-29T05:00:15.101Z,15.70
2023-03-29T05:02:44.351Z,16.33
2023-03-29T05:05:14.320Z,15.37
2023-03-29T05:07:41.977Z,14.47
2023-03-29T05:10:10.324Z,15.13
2023-03-29T05:12:38.486Z,16.10
2023-03-29T05:15:08.089Z,15.73
2023-03-29T05:17:36.006Z,15.83
2023-03-29T05:20:09.122Z,16.33
2023-03-29T05:22:38.329Z,14.90
2023-03-29T05:25:07.097Z,15.37
2023-03-29T05:27:35.204Z,14.90
2023-03-29T05:30:02.959Z,15.00
2023-03-29T05:32:31.013Z,15.73
2023-03-29T05:34:58.676Z,15.23
2023-03-29T05:37:26.604Z,14.80
2023-03-29T05:40:05.608Z,15.23
2023-03-29T05:42:34.098Z,15.07
2023-03-29T05:45:01.792Z,14.53
2023-03-29T05:47:29.559Z,14.97
2023-03-29T05:49:57.334Z,15.10
2023-03-29T05:52:25.196Z,14.13
2023-03-29T05:54:52.917Z,14.67
2023-03-29T05:57:22.767Z,15.57
2023-03-29T05:59:50.592Z,15.53
2023-03-29T06:02:18.788Z,14.83
2023-03-29T06:04:46.729Z,14.63
2023-03-29T06:07:14.753Z,15.33
2023-03-29T06:09:42.488Z,14.97
2023-03-29T06:12:10.518Z,14.67
2023-03-29T06:14:40.171Z,14.80
2023-03-29T06:17:07.940Z,15.13
2023-03-29T06:19:35.785Z,15.23
2023-03-29T06:22:03.739Z,13.97
2023-03-29T06:24:31.658Z,13.53
2023-03-29T06:26:59.429Z,13.30
2023-03-29T06:29:27.117Z,14.17
2023-03-29T06:31:57.143Z,13.47
2023-03-29T06:34:25.059Z,13.73
2023-03-29T06:36:52.976Z,13.93
2023-03-29T06:39:20.599Z,13.23
2023-03-29T06:41:49.028Z,12.83
2023-03-29T06:44:17.356Z,13.40
2023-03-29T06:46:45.492Z,12.47
2023-03-29T06:49:14.655Z,12.30
2023-03-29T06:51:42.460Z,11.40
2023-03-29T06:54:10.223Z,11.43
2023-03-29T06:56:37.918Z,11.57
2023-03-29T06:59:05.804Z,11.37
2023-03-29T07:01:34.641Z,10.97
2023-03-29T07:04:08.187Z,10.87
2023-03-29T07:06:39.047Z,10.50
2023-03-29T07:09:07.880Z,10.03
2023-03-29T07:11:36.325Z,10.27
2023-03-29T07:14:04.015Z,9.60
2023-03-29T07:16:32.688Z,8.97
2023-03-29T07:19:01.397Z,9.17
2023-03-29T07:21:29.446Z,9.70
2023-03-29T07:23:59.070Z,9.33
2023-03-29T07:26:29.037Z,7.83
2023-03-29T07:28:58.723Z,7.43
2023-03-29T07:31:26.616Z,8.13
2023-03-29T07:33:54.326Z,7.83
2023-03-29T07:36:22.061Z,7.10
2023-03-29T07:38:49.963Z,7.47
2023-03-29T07:41:19.015Z,8.00
2023-03-29T07:43:46.977Z,7.07
2023-03-29T07:46:14.696Z,7.33
2023-03-29T07:48:42.432Z,7.07
2023-03-29T07:51:10.154Z,6.97
2023-03-29T07:53:38.502Z,6.93
2023-03-29T07:56:06.804Z,6.53
2023-03-29T07:58:36.204Z,6.40
2023-03-29T08:01:04.135Z,7.33
2023-03-29T08:03:32.029Z,6.67
2023-03-29T08:06:02.848Z,6.33
2023-03-29T08:08:30.509Z,6.87
2023-03-29T08:10:58.576Z,5.77
2023-03-29T08:13:26.301Z,6.30
2023-03-29T08:15:55.610Z,6.10
2023-03-29T08:18:23.342Z,5.90
2023-03-29T08:20:51.737Z,6.33
2023-03-29T08:23:19.516Z,5.77
2023-03-29T08:25:47.360Z,6.37
2023-03-29T08:28:15.050Z,5.80
2023-03-29T08:30:43.090Z,6.07
2023-03-29T08:33:12.259Z,5.43
2023-03-29T08:35:40.016Z,6.10
2023-03-29T08:38:08.313Z,5.80
2023-03-29T08:40:36.732Z,6.03
2023-03-29T08:43:18.265Z,5.87
2023-03-29T08:45:53.149Z,5.30
2023-03-29T08:48:25.777Z,5.20
2023-03-29T08:50:56.087Z,5.33
2023-03-29T08:53:26.332Z,5.63
2023-03-29T08:55:54.824Z,5.57
2023-03-29T08:58:25.566Z,6.00
2023-03-29T09:00:55.143Z,5.30
2023-03-29T09:03:26.101Z,5.00
2023-03-29T09:05:57.707Z,4.77
2023-03-29T09:08:25.920Z,5.00
2023-03-29T09:11:06.772Z,5.70
2023-03-29T09:13:40.075Z,5.43
2023-03-29T09:16:13.370Z,5.30
2023-03-29T09:18:50.458Z,5.20
2023-03-29T09:21:22.328Z,5.30
2023-03-29T09:23:58.436Z,4.67
2023-03-29T09:26:29.432Z,5.60
2023-03-29T09:29:09.647Z,5.33
2023-03-29T09:31:40.358Z,5.00
2023-03-29T09:34:13.645Z,5.20
2023-03-29T09:36:47.416Z,4.60
2023-03-29T09:39:16.320Z,5.93
2023-03-29T09:41:48.267Z,5.03
2023-03-29T09:44:30.290Z,5.10
2023-03-29T09:47:02.952Z,6.27
2023-03-29T09:49:34.581Z,6.27
2023-03-29T09:52:05.902Z,5.07
2023-03-29T09:54:33.767Z,5.73
2023-03-29T09:57:02.013Z,6.30
2023-03-29T09:59:29.741Z,6.13
2023-03-29T10:02:07.380Z,7.00
2023-03-29T10:04:36.919Z,5.97
2023-03-29T10:07:05.746Z,5.73
2023-03-29T10:09:34.165Z,6.70
2023-03-29T10:12:03.457Z,6.60
2023-03-29T10:14:34.829Z,6.10
2023-03-29T10:17:05.773Z,6.10
2023-03-29T10:19:36.736Z,6.07
2023-03-29T10:22:09.307Z,6.23
2023-03-29T10:24:37.232Z,6.10
2023-03-29T10:27:08.406Z,5.63
2023-03-29T10:29:38.464Z,5.77
2023-03-29T10:32:15.579Z,5.53
2023-03-29T10:34:46.345Z,5.67
2023-03-29T10:37:16.530Z,6.23
2023-03-29T10:39:44.388Z,6.67
2023-03-29T10:42:15.062Z,5.73
2023-03-29T10:44:42.890Z,6.07
2023-03-29T10:47:16.012Z,5.53
2023-03-29T10:49:48.054Z,5.37
2023-03-29T10:52:17.318Z,4.80
2023-03-29T10:54:45.203Z,5.50
2023-03-29T10:57:16.240Z,5.47
2023-03-29T10:59:51.164Z,5.57
2023-03-29T11:02:43.480Z,5.30
2023-03-29T11:05:32.616Z,5.20
2023-03-29T11:08:20.724Z,5.50
2023-03-29T11:10:55.225Z,5.83
2023-03-29T11:13:30.200Z,5.60
2023-03-29T11:16:06.835Z,6.13
2023-03-29T11:18:50.668Z,5.40
2023-03-29T11:21:26.079Z,6.00
2023-03-29T11:24:01.915Z,5.30
2023-03-29T11:26:35.711Z,5.63
2023-03-29T11:29:05.697Z,6.17
2023-03-29T11:31:39.132Z,6.37
2023-03-29T11:34:16.412Z,6.70
2023-03-29T11:36:50.683Z,6.47
2023-03-29T11:39:28.012Z,6.43
2023-03-29T11:41:58.301Z,6.53
2023-03-29T11:44:28.350Z,6.40
2023-03-29T11:47:00.715Z,6.67
2023-03-29T11:49:31.034Z,6.93
2023-03-29T11:52:06.304Z,6.57
2023-03-29T11:54:38.311Z,7.43
2023-03-29T11:57:12.192Z,6.37
2023-03-29T11:59:44.942Z,6.90
2023-03-29T12:02:17.905Z,6.53
2023-03-29T12:04:50.035Z,6.33
2023-03-29T12:07:22.533Z,6.27
2023-03-29T12:09:52.303Z,6.37
2023-03-29T12:12:23.331Z,6.03
2023-03-29T12:14:57.348Z,6.73
2023-03-29T12:17:30.107Z,6.10
2023-03-29T12:20:05.451Z,6.03
2023-03-29T12:22:34.792Z,6.23
2023-03-29T12:25:04.655Z,5.87
2023-03-29T12:27:35.306Z,5.80
2023-03-29T12:30:23.450Z,6.10
2023-03-29T12:33:04.894Z,6.60
2023-03-29T12:35:38.607Z,6.67
2023-03-29T12:38:14.105Z,6.60
2023-03-29T12:40:44.081Z,6.57
2023-03-29T12:43:18.643Z,7.43
2023-03-29T12:45:48.613Z,7.03
2023-03-29T12:48:17.646Z,7.20
2023-03-29T12:50:48.567Z,7.33
2023-03-29T12:53:20.084Z,7.63
2023-03-29T12:55:56.024Z,7.40
2023-03-29T12:58:33.624Z,8.13
2023-03-29T13:01:07.258Z,7.87
2023-03-29T13:03:48.214Z,7.67
2023-03-29T13:06:28.924Z,8.03
2023-03-29T13:09:02.058Z,7.23
2023-03-29T13:11:34.447Z,7.27
2023-03-29T13:14:04.350Z,7.37
2023-03-29T13:16:34.656Z,7.67
2023-03-29T13:19:10.931Z,7.80
2023-03-29T13:21:45.168Z,7.60
2023-03-29T13:24:31.971Z,7.63
2023-03-29T13:27:02.506Z,7.60
2023-03-29T13:29:58.719Z,7.33
2023-03-29T13:32:51.292Z,7.10
2023-03-29T13:35:28.534Z,6.90
2023-03-29T13:38:02.246Z,6.97
2023-03-29T13:40:44.985Z,6.90
2023-03-29T13:43:23.607Z,7.30
2023-03-29T13:46:24.116Z,7.60
2023-03-29T13:49:05.392Z,6.97
2023-03-29T13:51:36.243Z,6.90
2023-03-29T13:54:09.058Z,7.33
2023-03-29T13:56:41.622Z,6.77
2023-03-29T13:59:13.615Z,6.90
2023-03-29T14:01:45.966Z,6.70
2023-03-29T14:04:17.386Z,6.40
2023-03-29T14:06:51.077Z,7.13
2023-03-29T14:09:19.375Z,7.40
2023-03-29T14:11:48.997Z,6.87
2023-03-29T14:14:17.786Z,6.50
2023-03-29T14:16:45.637Z,6.67
2023-03-29T14:19:15.757Z,6.87
2023-03-29T14:21:43.882Z,6.77
2023-03-29T14:24:13.272Z,8.03
2023-03-29T14:26:44.910Z,7.47
2023-03-29T14:29:13.993Z,7.07
2023-03-29T14:31:43.437Z,7.03
2023-03-29T14:34:15.329Z,7.37
2023-03-29T14:36:44.874Z,7.10
2023-03-29T14:39:16.406Z,7.23
2023-03-29T14:41:49.789Z,6.10
2023-03-29T14:44:19.776Z,6.50
2023-03-29T14:46:48.024Z,6.40
2023-03-29T14:49:17.260Z,6.53
2023-03-29T14:51:45.256Z,6.17
2023-03-29T14:54:19.387Z,6.10
2023-03-29T14:56:48.016Z,5.70
2023-03-29T14:59:27.103Z,6.10
2023-03-29T15:01:55.146Z,6.47
2023-03-29T15:04:22.803Z,5.87
2023-03-29T15:06:52.410Z,5.57
2023-03-29T15:09:28.627Z,5.20
2023-03-29T15:11:57.735Z,5.93
2023-03-29T15:14:28.704Z,5.90
2023-03-29T15:17:01.702Z,6.70
2023-03-29T15:19:29.478Z,6.37
2023-03-29T15:21:57.173Z,6.77
2023-03-29T15:24:30.388Z,5.97
2023-03-29T15:27:03.359Z,6.10
2023-03-29T15:29:41.853Z,6.63
2023-03-29T15:32:10.383Z,6.57
2023-03-29T15:34:39.068Z,6.83
2023-03-29T15:37:08.105Z,6.40
2023-03-29T15:39:36.027Z,6.93
2023-03-29T15:42:03.837Z,7.67
2023-03-29T15:44:35.272Z,7.30
2023-03-29T15:47:04.423Z,7.23
2023-03-29T15:49:32.317Z,7.00
2023-03-29T15:51:59.951Z,8.00
2023-03-29T15:54:29.105Z,7.20
2023-03-29T15:57:01.010Z,9.30
2023-03-29T15:59:28.907Z,8.50
2023-03-29T16:01:58.210Z,8.97
2023-03-29T16:04:27.610Z,8.37
2023-03-29T16:06:56.214Z,8.80
2023-03-29T16:09:25.659Z,8.70
2023-03-29T16:11:53.302Z,8.80
2023-03-29T16:14:23.145Z,8.57
2023-03-29T16:16:50.982Z,8.60
2023-03-29T16:19:19.509Z,8.97
2023-03-29T16:21:49.188Z,9.03
2023-03-29T16:24:19.555Z,8.40
2023-03-29T16:26:47.840Z,9.60
2023-03-29T16:29:17.325Z,9.00
2023-03-29T16:31:45.535Z,8.47
2023-03-29T16:34:13.997Z,7.90
2023-03-29T16:36:43.527Z,8.80
2023-03-29T16:39:13.406Z,8.60
2023-03-29T16:41:41.796Z,8.47
2023-03-29T16:44:14.266Z,9.10
2023-03-29T16:46:42.164Z,10.40
2023-03-29T16:49:13.916Z,11.47
2023-03-29T16:51:41.692Z,13.50
2023-03-29T16:54:09.572Z,14.20
2023-03-29T16:56:38.733Z,11.67
2023-03-29T16:59:06.438Z,9.53
2023-03-29T17:01:34.186Z,16.53
2023-03-29T17:04:01.979Z,11.97
2023-03-29T17:06:31.826Z,9.27
2023-03-29T17:09:00.674Z,8.17
2023-03-29T17:11:29.065Z,9.30
2023-03-29T17:13:58.418Z,9.37
2023-03-29T17:16:28.868Z,9.10
2023-03-29T17:18:58.473Z,10.93
2023-03-29T17:21:26.466Z,9.63
2023-03-29T17:23:54.177Z,10.77
2023-03-29T17:26:21.885Z,10.97
2023-03-29T17:28:49.600Z,9.40
2023-03-29T17:31:19.420Z,12.20
2023-03-29T17:33:47.300Z,13.07
2023-03-29T17:36:15.136Z,13.47
2023-03-29T17:38:43.066Z,16.60
2023-03-29T17:41:11.045Z,16.00
2023-03-29T17:43:38.795Z,12.80
2023-03-29T17:46:07.060Z,11.47
2023-03-29T17:48:36.094Z,10.40
2023-03-29T17:51:03.876Z,11.33
2023-03-29T17:53:31.558Z,10.43
2023-03-29T17:55:59.259Z,11.47
2023-03-29T17:58:27.118Z,10.50
2023-03-29T18:00:54.857Z,11.03
2023-03-29T18:03:22.728Z,11.70
2023-03-29T18:05:51.842Z,10.87
2023-03-29T18:08:19.603Z,10.80
2023-03-29T18:10:47.329Z,11.50
2023-03-29T18:13:15.730Z,11.40
2023-03-29T18:15:45.077Z,11.83
2023-03-29T18:18:12.843Z,12.90
2023-03-29T18:20:40.629Z,11.07
2023-03-29T18:23:09.720Z,11.50
2023-03-29T18:25:38.617Z,11.87
2023-03-29T18:28:06.290Z,14.20
2023-03-29T18:30:34.038Z,13.73
2023-03-29T18:33:01.873Z,12.80
2023-03-29T18:35:29.605Z,12.60
2023-03-29T18:37:57.358Z,13.20
2023-03-29T18:40:27.626Z,12.33
2023-03-29T18:42:55.422Z,12.43
2023-03-29T18:45:23.265Z,13.70
2023-03-29T18:47:52.393Z,15.37
2023-03-29T18:50:20.201Z,13.57
2023-03-29T18:52:47.856Z,13.50
2023-03-29T18:55:15.846Z,12.97
2023-03-29T18:57:44.904Z,13.57
2023-03-29T19:00:13.314Z,11.53
2023-03-29T19:02:41.451Z,12.27
2023-03-29T19:05:09.713Z,12.83
2023-03-29T19:07:37.440Z,13.80
2023-03-29T19:10:06.679Z,13.37
2023-03-29T19:12:34.434Z,12.73
2023-03-29T19:15:03.701Z,12.63
2023-03-29T19:17:31.444Z,12.03
2023-03-29T19:19:59.292Z,12.73
2023-03-29T19:22:26.978Z,11.83
2023-03-29T19:24:54.734Z,13.17
2023-03-29T19:27:22.456Z,13.70
2023-03-29T19:29:50.788Z,13.20
2023-03-29T19:32:19.837Z,13.10
2023-03-29T19:34:47.703Z,12.60
2023-03-29T19:37:17.422Z,12.50
2023-03-29T19:39:45.492Z,13.17
2023-03-29T19:42:13.237Z,14.07
2023-03-29T19:44:40.937Z,13.77
2023-03-29T19:47:08.619Z,12.20
2023-03-29T19:49:38.253Z,12.23
2023-03-29T19:52:06.308Z,13.70
2023-03-29T19:54:34.085Z,13.10
2023-03-29T19:57:02.728Z,13.67
2023-03-29T19:59:31.460Z,13.03
2023-03-29T20:01:59.365Z,12.87
2023-03-29T20:04:28.838Z,13.10
2023-03-29T20:06:58.497Z,12.63
2023-03-29T20:09:26.145Z,12.53
2023-03-29T20:11:53.793Z,13.47
2023-03-29T20:14:21.539Z,13.23
2023-03-29T20:16:50.706Z,13.93
2023-03-29T20:19:18.707Z,15.63
2023-03-29T20:21:46.344Z,15.47
2023-03-29T20:24:15.607Z,13.77
2023-03-29T20:26:43.264Z,15.40
2023-03-29T20:29:11.024Z,15.10
2023-03-29T20:31:38.785Z,15.90
2023-03-29T20:34:06.501Z,14.67
2023-03-29T20:36:34.219Z,15.33
2023-03-29T20:39:01.924Z,14.77
2023-03-29T20:41:31.423Z,18.27
2023-03-29T20:44:00.112Z,16.77
2023-03-29T20:46:33.434Z,15.97
2023-03-29T20:49:01.681Z,15.40
2023-03-29T20:51:30.431Z,17.03
2023-03-29T20:54:02.803Z,18.00
2023-03-29T20:56:33.300Z,17.40
2023-03-29T20:59:00.986Z,16.00
2023-03-29T21:01:29.621Z,16.80
2023-03-29T21:03:57.543Z,18.37
2023-03-29T21:06:25.535Z,19.27
2023-03-29T21:08:53.655Z,17.63
2023-03-29T21:11:21.960Z,18.23
2023-03-29T21:13:52.786Z,18.67
2023-03-29T21:16:20.650Z,18.87
2023-03-29T21:18:48.424Z,17.27
2023-03-29T21:21:16.349Z,19.73
2023-03-29T21:23:44.136Z,18.77
2023-03-29T21:26:12.002Z,18.73
2023-03-29T21:28:40.956Z,17.57
2023-03-29T21:31:10.342Z,17.80
2023-03-29T21:33:38.079Z,20.40
2023-03-29T21:36:06.419Z,21.33
2023-03-29T21:38:34.176Z,18.17
2023-03-29T21:41:02.451Z,16.77
2023-03-29T21:43:30.416Z,18.20
2023-03-29T21:45:58.062Z,16.87
2023-03-29T21:48:27.227Z,16.47
2023-03-29T21:50:54.959Z,16.33
2023-03-29T21:53:22.701Z,15.60
2023-03-29T21:55:50.523Z,15.07
2023-03-29T21:58:19.254Z,14.07
2023-03-29T22:00:47.939Z,14.03
2023-03-29T22:03:16.434Z,13.13
2023-03-29T22:05:56.421Z,11.60
2023-03-29T22:08:26.349Z,12.43
2023-03-29T22:10:56.935Z,12.37
2023-03-29T22:13:26.162Z,10.27
2023-03-29T22:15:58.646Z,10.20
2023-03-29T22:18:27.999Z,8.80
2023-03-29T22:20:57.355Z,8.40
2023-03-29T22:23:25.757Z,7.73
2023-03-29T22:25:53.487Z,7.67
2023-03-29T22:28:21.150Z,7.33
2023-03-29T22:30:48.857Z,6.80
2023-03-29T22:33:16.591Z,6.53
2023-03-29T22:35:44.380Z,6.17
2023-03-29T22:38:13.430Z,5.77
2023-03-29T22:40:41.296Z,5.97
2023-03-29T22:43:08.951Z,6.73
2023-03-29T22:45:37.278Z,5.60
2023-03-29T22:48:05.319Z,4.87
2023-03-29T22:50:33.082Z,4.73
2023-03-29T22:53:00.866Z,5.17
2023-03-29T22:55:29.947Z,4.80
2023-03-29T22:57:57.608Z,4.33
2023-03-29T23:00:25.234Z,4.80
2023-03-29T23:02:52.941Z,4.73
2023-03-29T23:05:20.680Z,4.17
2023-03-29T23:07:48.375Z,4.30
2023-03-29T23:10:16.778Z,5.23
2023-03-29T23:12:45.839Z,4.83
2023-03-29T23:15:13.720Z,4.90
2023-03-29T23:17:41.962Z,4.47
2023-03-29T23:20:11.282Z,3.93
2023-03-29T23:22:39.686Z,4.40
2023-03-29T23:25:08.490Z,4.17
2023-03-29T23:27:36.182Z,3.97
2023-03-29T23:30:07.538Z,4.53
2023-03-29T23:32:35.295Z,3.70
2023-03-29T23:35:04.480Z,3.90
2023-03-29T23:37:32.160Z,3.53
2023-03-29T23:39:59.860Z,3.73
2023-03-29T23:42:27.629Z,3.90
2023-03-29T23:44:55.901Z,4.20
2023-03-29T23:47:24.990Z,3.57
2023-03-29T23:49:53.200Z,4.20
2023-03-29T23:52:21.008Z,3.93
2023-03-29T23:54:48.634Z,3.60
2023-03-29T23:57:16.369Z,3.83
2023-03-29T23:59:44.074Z,4.17
